createdAt,value
2023-02-12T00:01:23.974Z,3.86
2023-02-12T00:03:51.122Z,3.84
2023-02-12T00:06:18.239Z,3.87
2023-02-12T00:08:45.409Z,3.81
2023-02-12T00:11:19.057Z,3.73
2023-02-12T00:13:46.190Z,3.74
2023-02-12T00:16:20.368Z,3.79
2023-02-12T00:18:48.490Z,3.87
2023-02-12T00:21:17.340Z,3.89
2023-02-12T00:23:44.464Z,3.78
2023-02-12T00:26:15.594Z,3.80
2023-02-12T00:28:43.041Z,3.63
2023-02-12T00:31:21.749Z,3.64
2023-02-12T00:33:49.232Z,3.48
2023-02-12T00:36:23.002Z,3.48
2023-02-12T00:38:53.139Z,3.61
2023-02-12T00:41:20.862Z,3.63
2023-02-12T00:43:48.888Z,3.67
2023-02-12T00:46:16.182Z,3.59
2023-02-12T00:48:43.434Z,3.47
2023-02-12T00:51:10.582Z,3.45
2023-02-12T00:53:38.170Z,3.52
2023-02-12T00:56:05.723Z,3.54
2023-02-12T00:58:32.772Z,3.55
2023-02-12T01:00:59.824Z,3.54
2023-02-12T01:03:27.221Z,3.50
2023-02-12T01:05:54.762Z,3.50
2023-02-12T01:08:22.572Z,3.58
2023-02-12T01:11:02.156Z,3.42
2023-02-12T01:13:30.608Z,3.46
2023-02-12T01:16:13.740Z,3.54
2023-02-12T01:18:40.823Z,3.55
2023-02-12T01:21:29.221Z,3.48
2023-02-12T01:23:57.107Z,3.53
2023-02-12T01:26:24.951Z,3.56
2023-02-12T01:28:58.493Z,3.54
2023-02-12T01:31:33.020Z,3.54
2023-02-12T01:34:01.271Z,3.47
2023-02-12T01:36:30.575Z,3.45
2023-02-12T01:39:02.899Z,3.51
2023-02-12T01:41:34.169Z,3.54
2023-02-12T01:44:19.342Z,3.48
2023-02-12T01:46:57.795Z,3.43
2023-02-12T01:49:44.711Z,3.48
2023-02-12T01:52:27.989Z,3.46
2023-02-12T01:54:59.492Z,3.40
2023-02-12T01:57:30.997Z,3.43
2023-02-12T02:00:00.316Z,3.47
2023-02-12T02:02:28.007Z,3.49
2023-02-12T02:05:01.842Z,3.48
2023-02-12T02:07:29.746Z,3.53
2023-02-12T02:10:01.797Z,3.43
2023-02-12T02:12:48.592Z,3.44
2023-02-12T02:15:15.718Z,3.43
2023-02-12T02:17:57.913Z,3.36
2023-02-12T02:21:08.604Z,3.47
2023-02-12T02:24:31.247Z,3.46
2023-02-12T02:27:17.577Z,3.33
2023-02-12T02:30:12.113Z,3.43
2023-02-12T02:32:58.928Z,3.45
2023-02-12T02:35:57.112Z,3.38
2023-02-12T02:38:39.219Z,3.39
2023-02-12T02:41:29.239Z,3.41
2023-02-12T02:43:56.590Z,3.45
2023-02-12T02:46:58.723Z,3.40
2023-02-12T02:49:41.340Z,3.41
2023-02-12T02:52:14.795Z,3.40
2023-02-12T02:55:01.290Z,3.27
2023-02-12T02:57:57.523Z,3.25
2023-02-12T03:00:48.900Z,3.32
2023-02-12T03:03:46.822Z,3.38
2023-02-12T03:06:28.085Z,3.23
2023-02-12T03:09:05.371Z,3.21
2023-02-12T03:11:34.462Z,3.32
2023-02-12T03:14:26.871Z,3.15
2023-02-12T03:17:10.578Z,3.24
2023-02-12T03:19:57.299Z,3.21
2023-02-12T03:22:35.662Z,3.29
2023-02-12T03:25:15.120Z,3.28
2023-02-12T03:28:22.593Z,3.22
2023-02-12T03:31:33.483Z,3.26
2023-02-12T03:34:27.774Z,3.27
2023-02-12T03:37:00.786Z,3.15
2023-02-12T03:39:41.096Z,3.09
2023-02-12T03:42:16.204Z,3.21
2023-02-12T03:45:10.969Z,3.20
2023-02-12T03:47:51.577Z,3.17
2023-02-12T03:50:36.854Z,3.07
2023-02-12T03:53:05.167Z,3.16
2023-02-12T03:55:36.783Z,3.10
2023-02-12T03:58:07.546Z,2.94
2023-02-12T04:00:34.664Z,3.00
2023-02-12T04:03:02.000Z,2.96
2023-02-12T04:05:29.107Z,2.94
2023-02-12T04:07:58.741Z,2.85
2023-02-12T04:10:47.220Z,2.93
2023-02-12T04:13:38.690Z,2.94
2023-02-12T04:17:05.551Z,3.00
2023-02-12T04:19:52.652Z,2.86
2023-02-12T04:22:36.763Z,2.93
2023-02-12T04:25:22.807Z,2.88
2023-02-12T04:28:27.634Z,2.92
2023-02-12T04:31:07.781Z,2.93
2023-02-12T04:33:57.469Z,2.83
2023-02-12T04:36:32.156Z,2.92
2023-02-12T04:39:11.151Z,2.95
2023-02-12T04:41:39.718Z,2.91
2023-02-12T04:44:26.093Z,2.91
2023-02-12T04:46:53.666Z,2.93
2023-02-12T04:49:22.881Z,2.86
2023-02-12T04:51:50.647Z,2.84
2023-02-12T04:54:20.001Z,2.91
2023-02-12T04:56:47.937Z,2.91
2023-02-12T04:59:15.772Z,2.93
2023-02-12T05:01:44.317Z,3.00
2023-02-12T05:04:15.215Z,2.98
2023-02-12T05:06:43.817Z,2.89
2023-02-12T05:09:17.096Z,2.81
2023-02-12T05:11:44.593Z,2.89
2023-02-12T05:14:12.377Z,2.86
2023-02-12T05:16:39.404Z,2.80
2023-02-12T05:19:09.506Z,2.85
2023-02-12T05:21:38.367Z,2.93
2023-02-12T05:24:06.467Z,2.89
2023-02-12T05:26:33.988Z,2.96
2023-02-12T05:29:01.301Z,2.93
2023-02-12T05:31:28.587Z,2.92
2023-02-12T05:33:55.635Z,2.94
2023-02-12T05:36:25.055Z,2.86
2023-02-12T05:38:53.834Z,2.94
2023-02-12T05:41:24.532Z,2.92
2023-02-12T05:43:52.570Z,2.91
2023-02-12T05:46:21.520Z,2.85
2023-02-12T05:48:48.710Z,2.86
2023-02-12T05:51:23.281Z,2.74
2023-02-12T05:53:53.739Z,2.82
2023-02-12T05:56:24.904Z,2.74
2023-02-12T05:58:59.592Z,2.71
2023-02-12T06:01:30.697Z,2.74
2023-02-12T06:04:03.994Z,2.64
2023-02-12T06:06:32.651Z,2.62
2023-02-12T06:09:00.040Z,2.29
2023-02-12T06:11:28.040Z,2.38
2023-02-12T06:13:55.115Z,2.62
2023-02-12T06:16:24.798Z,2.57
2023-02-12T06:18:53.768Z,2.55
2023-02-12T06:21:23.553Z,2.71
2023-02-12T06:23:52.243Z,2.52
2023-02-12T06:26:20.191Z,2.22
2023-02-12T06:28:48.081Z,2.29
2023-02-12T06:31:30.408Z,2.42
2023-02-12T06:34:02.635Z,2.75
2023-02-12T06:36:29.848Z,2.75
2023-02-12T06:38:57.383Z,2.84
2023-02-12T06:41:24.947Z,2.76
2023-02-12T06:43:52.090Z,2.76
2023-02-12T06:46:19.978Z,2.99
2023-02-12T06:48:47.085Z,3.17
2023-02-12T06:51:18.052Z,3.37
2023-02-12T06:53:45.354Z,3.50
2023-02-12T06:56:14.030Z,3.50
2023-02-12T06:58:45.134Z,3.52
2023-02-12T07:01:25.329Z,3.55
2023-02-12T07:04:02.473Z,5.25
2023-02-12T07:06:31.886Z,7.94
2023-02-12T07:08:59.217Z,9.60
2023-02-12T07:11:29.299Z,10.77
2023-02-12T07:13:56.724Z,11.68
2023-02-12T07:16:24.018Z,12.43
2023-02-12T07:18:51.274Z,13.28
2023-02-12T07:21:19.795Z,14.07
2023-02-12T07:23:51.284Z,14.89
2023-02-12T07:26:21.009Z,15.11
2023-02-12T07:28:49.439Z,15.50
2023-02-12T07:31:22.996Z,15.77
2023-02-12T07:33:55.440Z,15.71
2023-02-12T07:36:23.488Z,16.11
2023-02-12T07:38:51.127Z,16.35
2023-02-12T07:41:22.454Z,16.74
2023-02-12T07:43:58.933Z,16.51
2023-02-12T07:46:31.379Z,16.94
2023-02-12T07:49:00.821Z,17.35
2023-02-12T07:51:29.041Z,18.07
2023-02-12T07:53:56.523Z,18.49
2023-02-12T07:56:32.417Z,18.85
2023-02-12T07:59:07.240Z,18.67
2023-02-12T08:01:45.426Z,19.00
2023-02-12T08:04:15.596Z,19.67
2023-02-12T08:06:48.669Z,19.95
2023-02-12T08:09:19.774Z,20.06
2023-02-12T08:11:47.522Z,20.13
2023-02-12T08:14:18.819Z,19.76
2023-02-12T08:16:47.652Z,19.58
2023-02-12T08:19:20.465Z,18.70
2023-02-12T08:21:53.577Z,18.14
2023-02-12T08:24:22.291Z,17.56
2023-02-12T08:26:49.770Z,17.63
2023-02-12T08:29:20.659Z,17.81
2023-02-12T08:31:50.198Z,17.71
2023-02-12T08:34:25.894Z,18.22
2023-02-12T08:36:54.711Z,18.50
2023-02-12T08:39:23.637Z,18.41
2023-02-12T08:41:51.266Z,18.99
2023-02-12T08:44:18.340Z,19.59
2023-02-12T08:46:50.274Z,19.91
2023-02-12T08:49:24.729Z,20.04
2023-02-12T08:51:55.158Z,19.95
2023-02-12T08:54:25.705Z,20.28
2023-02-12T08:56:58.952Z,20.91
2023-02-12T08:59:26.785Z,20.90
2023-02-12T09:01:55.064Z,21.54
2023-02-12T09:04:26.416Z,21.91
2023-02-12T09:06:54.042Z,22.00
2023-02-12T09:09:21.988Z,21.73
2023-02-12T09:11:49.529Z,21.97
2023-02-12T09:14:18.806Z,21.65
2023-02-12T09:16:46.084Z,22.01
2023-02-12T09:19:15.319Z,21.91
2023-02-12T09:21:42.846Z,22.32
2023-02-12T09:24:10.989Z,22.66
2023-02-12T09:26:39.505Z,22.99
2023-02-12T09:29:06.626Z,22.98
2023-02-12T09:31:34.210Z,23.02
2023-02-12T09:34:07.034Z,23.17
2023-02-12T09:36:34.401Z,23.08
2023-02-12T09:39:01.792Z,23.50
2023-02-12T09:42:15.435Z,23.56
2023-02-12T09:45:19.920Z,23.75
2023-02-12T09:48:16.281Z,23.60
2023-02-12T09:50:52.704Z,23.61
2023-02-12T09:53:31.869Z,23.81
2023-02-12T09:55:59.425Z,23.62
2023-02-12T09:58:53.109Z,23.74
2023-02-12T10:01:22.228Z,24.04
2023-02-12T10:03:52.261Z,24.15
2023-02-12T10:06:41.668Z,24.18
2023-02-12T10:09:23.465Z,24.07
2023-02-12T10:12:26.620Z,24.14
2023-02-12T10:15:44.083Z,24.12
2023-02-12T10:18:58.084Z,24.22
2023-02-12T10:21:31.096Z,24.27
2023-02-12T10:24:56.980Z,24.05
2023-02-12T10:27:50.086Z,23.83
2023-02-12T10:30:45.664Z,23.46
2023-02-12T10:33:24.869Z,23.54
2023-02-12T10:36:01.053Z,23.31
2023-02-12T10:38:35.366Z,23.39
2023-02-12T10:41:02.875Z,22.64
2023-02-12T10:43:30.671Z,22.60
2023-02-12T10:45:58.566Z,22.53
2023-02-12T10:48:38.040Z,22.44
2023-02-12T10:51:07.998Z,22.24
2023-02-12T10:53:40.801Z,22.13
2023-02-12T10:56:12.990Z,22.45
2023-02-12T10:59:03.357Z,22.46
2023-02-12T11:01:38.687Z,22.57
2023-02-12T11:04:29.526Z,22.60
2023-02-12T11:07:12.000Z,22.35
2023-02-12T11:09:52.201Z,22.19
2023-02-12T11:12:48.065Z,21.99
2023-02-12T11:15:26.021Z,21.83
2023-02-12T11:18:26.271Z,21.54
2023-02-12T11:21:12.364Z,21.24
2023-02-12T11:23:42.961Z,21.13
2023-02-12T11:26:18.437Z,21.34
2023-02-12T11:29:17.289Z,21.23
2023-02-12T11:32:10.174Z,20.82
2023-02-12T11:34:37.576Z,20.69
2023-02-12T11:37:12.259Z,20.67
2023-02-12T11:39:40.611Z,20.21
2023-02-12T11:42:25.840Z,19.95
2023-02-12T11:44:58.292Z,19.73
2023-02-12T11:47:33.821Z,19.70
2023-02-12T11:50:30.289Z,19.42
2023-02-12T11:53:04.036Z,19.34
2023-02-12T11:55:39.534Z,19.34
2023-02-12T11:58:25.059Z,19.02
2023-02-12T12:01:21.044Z,18.96
2023-02-12T12:04:18.505Z,19.13
2023-02-12T12:07:15.559Z,19.51
2023-02-12T12:10:08.329Z,19.33
2023-02-12T12:12:59.760Z,18.63
2023-02-12T12:15:59.079Z,18.09
2023-02-12T12:19:01.922Z,17.56
2023-02-12T12:21:45.897Z,17.51
2023-02-12T12:24:39.990Z,17.27
2023-02-12T12:28:03.349Z,17.16
2023-02-12T12:31:42.816Z,16.76
2023-02-12T12:34:23.704Z,16.64
2023-02-12T12:37:19.410Z,16.32
2023-02-12T12:40:28.380Z,16.00
2023-02-12T12:43:26.598Z,15.55
2023-02-12T12:46:25.226Z,15.28
2023-02-12T12:49:07.100Z,15.26
2023-02-12T12:52:03.500Z,15.18
2023-02-12T12:54:52.168Z,14.76
2023-02-12T12:57:46.658Z,14.69
2023-02-12T13:00:33.144Z,14.61
2023-02-12T13:03:53.068Z,14.42
2023-02-12T13:06:55.491Z,14.15
2023-02-12T13:09:59.917Z,14.03
2023-02-12T13:12:49.516Z,13.59
2023-02-12T13:15:30.183Z,13.53
2023-02-12T13:18:20.652Z,13.30
2023-02-12T13:21:16.692Z,13.16
2023-02-12T13:24:05.485Z,13.06
2023-02-12T13:26:58.938Z,12.75
2023-02-12T13:29:41.942Z,12.68
2023-02-12T13:32:17.968Z,12.51
2023-02-12T13:34:45.240Z,12.36
2023-02-12T13:37:25.133Z,12.01
2023-02-12T13:39:53.239Z,11.91
2023-02-12T13:43:04.468Z,11.93
2023-02-12T13:46:07.186Z,11.68
2023-02-12T13:49:07.334Z,11.55
2023-02-12T13:51:50.483Z,11.30
2023-02-12T13:54:37.436Z,11.25
2023-02-12T13:57:15.019Z,11.09
2023-02-12T13:59:45.904Z,11.08
2023-02-12T14:02:12.926Z,10.99
2023-02-12T14:04:47.704Z,10.86
2023-02-12T14:07:16.419Z,10.76
2023-02-12T14:09:52.676Z,10.58
2023-02-12T14:12:25.588Z,10.50
2023-02-12T14:15:34.721Z,10.46
2023-02-12T14:18:36.204Z,10.44
2023-02-12T14:21:12.269Z,10.44
2023-02-12T14:23:46.786Z,10.27
2023-02-12T14:26:19.419Z,10.30
2023-02-12T14:28:59.339Z,10.37
2023-02-12T14:31:34.055Z,10.10
2023-02-12T14:34:07.661Z,10.03
2023-02-12T14:36:40.745Z,9.95
2023-02-12T14:39:22.532Z,9.79
2023-02-12T14:41:55.416Z,9.77
2023-02-12T14:44:26.851Z,9.53
2023-02-12T14:46:56.382Z,9.37
2023-02-12T14:49:34.194Z,9.21
2023-02-12T14:52:33.922Z,9.29
2023-02-12T14:55:17.405Z,9.11
2023-02-12T14:57:45.126Z,9.03
2023-02-12T15:00:18.027Z,8.97
2023-02-12T15:02:59.674Z,8.98
2023-02-12T15:05:48.104Z,8.63
2023-02-12T15:08:48.788Z,8.51
2023-02-12T15:11:39.387Z,8.45
2023-02-12T15:14:15.448Z,8.23
2023-02-12T15:17:05.153Z,8.12
2023-02-12T15:20:21.543Z,8.10
2023-02-12T15:22:48.655Z,7.95
2023-02-12T15:25:29.496Z,8.11
2023-02-12T15:28:11.868Z,7.88
2023-02-12T15:30:43.084Z,7.55
2023-02-12T15:33:24.788Z,7.62
2023-02-12T15:35:53.088Z,7.47
2023-02-12T15:38:37.315Z,7.43
2023-02-12T15:41:06.620Z,7.54
2023-02-12T15:43:40.195Z,7.51
2023-02-12T15:46:16.826Z,7.46
2023-02-12T15:48:45.091Z,7.47
2023-02-12T15:51:39.108Z,7.36
2023-02-12T15:54:07.813Z,7.25
2023-02-12T15:56:36.354Z,7.23
2023-02-12T15:59:04.127Z,7.18
2023-02-12T16:01:35.560Z,7.13
2023-02-12T16:04:08.460Z,6.99
2023-02-12T16:06:39.607Z,6.95
2023-02-12T16:09:27.445Z,6.91
2023-02-12T16:11:55.668Z,6.87
2023-02-12T16:14:46.558Z,6.81
2023-02-12T16:17:46.803Z,6.79
2023-02-12T16:20:18.971Z,6.74
2023-02-12T16:22:50.692Z,6.66
2023-02-12T16:25:33.656Z,6.63
2023-02-12T16:28:30.226Z,6.55
2023-02-12T16:31:14.711Z,6.54
2023-02-12T16:33:48.782Z,6.63
2023-02-12T16:36:24.356Z,6.52
2023-02-12T16:39:08.510Z,6.50
2023-02-12T16:41:55.220Z,6.37
2023-02-12T16:44:26.889Z,6.35
2023-02-12T16:46:58.517Z,6.37
2023-02-12T16:49:27.020Z,6.21
2023-02-12T16:52:15.101Z,6.19
2023-02-12T16:54:42.117Z,6.19
2023-02-12T16:57:11.752Z,6.07
2023-02-12T16:59:43.382Z,6.01
2023-02-12T17:02:15.676Z,5.94
2023-02-12T17:04:42.951Z,5.89
2023-02-12T17:07:27.497Z,5.80
2023-02-12T17:09:54.906Z,5.83
2023-02-12T17:12:21.968Z,5.77
2023-02-12T17:14:49.001Z,5.76
2023-02-12T17:17:16.285Z,5.84
2023-02-12T17:19:43.468Z,5.71
2023-02-12T17:22:36.750Z,5.81
2023-02-12T17:25:04.040Z,5.73
2023-02-12T17:27:31.082Z,5.72
2023-02-12T17:29:58.057Z,5.71
2023-02-12T17:32:25.489Z,5.74
2023-02-12T17:34:52.575Z,5.66
2023-02-12T17:37:22.232Z,5.58
2023-02-12T17:39:49.224Z,5.52
2023-02-12T17:42:16.913Z,5.49
2023-02-12T17:44:44.186Z,5.43
2023-02-12T17:47:11.191Z,5.16
2023-02-12T17:49:39.916Z,5.33
2023-02-12T17:52:07.551Z,5.23
2023-02-12T17:54:34.912Z,5.40
2023-02-12T17:57:01.983Z,5.24
2023-02-12T17:59:29.298Z,5.18
2023-02-12T18:01:56.595Z,5.18
2023-02-12T18:04:23.710Z,5.19
2023-02-12T18:06:50.696Z,5.19
2023-02-12T18:09:17.699Z,5.33
2023-02-12T18:11:44.806Z,5.41
2023-02-12T18:14:12.237Z,5.44
2023-02-12T18:16:39.246Z,5.44
2023-02-12T18:19:06.291Z,5.52
2023-02-12T18:21:35.082Z,5.46
2023-02-12T18:24:03.170Z,5.57
2023-02-12T18:26:30.258Z,5.60
2023-02-12T18:29:01.216Z,5.49
2023-02-12T18:31:29.147Z,5.56
2023-02-12T18:33:56.433Z,5.54
2023-02-12T18:36:23.570Z,5.49
2023-02-12T18:38:52.011Z,5.53
2023-02-12T18:41:24.396Z,5.40
2023-02-12T18:43:51.913Z,5.62
2023-02-12T18:46:23.600Z,5.55
2023-02-12T18:48:51.128Z,5.55
2023-02-12T18:51:22.670Z,5.63
2023-02-12T18:54:02.488Z,5.53
2023-02-12T18:56:32.983Z,5.83
2023-02-12T18:59:02.840Z,5.86
2023-02-12T19:01:29.897Z,5.56
2023-02-12T19:04:00.301Z,5.56
2023-02-12T19:06:29.642Z,5.68
2023-02-12T19:08:58.642Z,5.77
2023-02-12T19:11:27.023Z,5.78
2023-02-12T19:13:54.592Z,5.69
2023-02-12T19:16:23.955Z,5.66
2023-02-12T19:18:54.855Z,5.61
2023-02-12T19:21:26.164Z,5.75
2023-02-12T19:23:59.639Z,5.70
2023-02-12T19:26:29.805Z,5.75
2023-02-12T19:28:57.988Z,5.65
2023-02-12T19:31:30.438Z,5.64
2023-02-12T19:34:06.551Z,5.69
2023-02-12T19:36:36.424Z,5.64
2023-02-12T19:39:05.911Z,5.62
2023-02-12T19:41:33.162Z,5.65
2023-02-12T19:44:01.746Z,5.60
2023-02-12T19:46:31.154Z,5.64
2023-02-12T19:49:02.557Z,5.63
2023-02-12T19:51:30.894Z,5.63
2023-02-12T19:54:04.368Z,5.64
2023-02-12T19:56:31.650Z,5.58
2023-02-12T19:58:59.147Z,5.65
2023-02-12T20:01:26.786Z,5.59
2023-02-12T20:03:54.503Z,5.66
2023-02-12T20:06:34.676Z,5.59
2023-02-12T20:09:02.510Z,5.53
2023-02-12T20:11:34.393Z,5.53
2023-02-12T20:14:02.404Z,5.54
2023-02-12T20:16:37.525Z,5.52
2023-02-12T20:19:25.342Z,5.56
2023-02-12T20:21:56.740Z,5.54
2023-02-12T20:24:27.353Z,5.57
2023-02-12T20:26:55.155Z,5.43
2023-02-12T20:29:22.996Z,5.43
2023-02-12T20:31:50.567Z,5.43
2023-02-12T20:34:20.031Z,5.49
2023-02-12T20:36:47.894Z,5.43
2023-02-12T20:39:18.727Z,5.54
2023-02-12T20:41:45.860Z,5.47
2023-02-12T20:44:17.412Z,5.49
2023-02-12T20:46:47.117Z,5.45
2023-02-12T20:49:17.062Z,5.42
2023-02-12T20:51:45.805Z,5.41
2023-02-12T20:54:13.551Z,5.42
2023-02-12T20:56:40.823Z,5.38
2023-02-12T20:59:08.407Z,5.35
2023-02-12T21:01:39.207Z,5.37
2023-02-12T21:04:16.901Z,5.37
2023-02-12T21:06:45.644Z,5.46
2023-02-12T21:09:14.721Z,5.40
2023-02-12T21:11:45.755Z,5.50
2023-02-12T21:14:23.435Z,5.46
2023-02-12T21:16:54.003Z,5.45
2023-02-12T21:19:21.997Z,5.61
2023-02-12T21:21:49.368Z,5.57
2023-02-12T21:24:21.605Z,5.55
2023-02-12T21:26:49.399Z,5.49
2023-02-12T21:29:16.543Z,5.48
2023-02-12T21:31:47.027Z,5.48
2023-02-12T21:34:19.418Z,5.45
2023-02-12T21:36:48.557Z,5.55
2023-02-12T21:39:28.712Z,5.45
2023-02-12T21:42:03.163Z,5.48
2023-02-12T21:44:35.321Z,5.38
2023-02-12T21:47:03.392Z,5.45
2023-02-12T21:49:30.446Z,5.51
2023-02-12T21:52:02.223Z,5.48
2023-02-12T21:54:30.567Z,5.48
2023-02-12T21:56:58.559Z,5.51
2023-02-12T21:59:26.646Z,5.56
2023-02-12T22:01:56.373Z,5.49
2023-02-12T22:04:23.533Z,5.52
2023-02-12T22:06:52.843Z,5.60
2023-02-12T22:09:22.830Z,5.60
2023-02-12T22:11:52.243Z,5.57
2023-02-12T22:14:21.079Z,5.47
2023-02-12T22:16:48.268Z,5.53
2023-02-12T22:19:15.782Z,5.49
2023-02-12T22:21:44.444Z,5.48
2023-02-12T22:24:15.550Z,5.48
2023-02-12T22:26:44.310Z,5.52
2023-02-12T22:29:14.673Z,5.53
2023-02-12T22:31:44.355Z,5.55
2023-02-12T22:34:17.248Z,5.52
2023-02-12T22:36:45.323Z,5.62
2023-02-12T22:39:13.999Z,5.63
2023-02-12T22:41:42.447Z,5.44
2023-02-12T22:44:12.441Z,5.54
2023-02-12T22:46:40.035Z,5.60
2023-02-12T22:49:07.056Z,5.62
2023-02-12T22:51:35.976Z,5.57
2023-02-12T22:54:03.922Z,5.66
2023-02-12T22:56:31.013Z,5.63
2023-02-12T22:59:01.132Z,5.61
2023-02-12T23:01:29.720Z,5.66
2023-02-12T23:03:57.198Z,5.68
2023-02-12T23:06:29.991Z,5.63
2023-02-12T23:09:02.048Z,5.72
2023-02-12T23:11:31.659Z,5.78
2023-02-12T23:13:59.402Z,5.76
2023-02-12T23:16:26.665Z,5.66
2023-02-12T23:18:59.550Z,5.71
2023-02-12T23:21:28.931Z,5.71
2023-02-12T23:23:56.795Z,5.85
2023-02-12T23:26:23.820Z,5.79
2023-02-12T23:28:50.938Z,5.91
2023-02-12T23:31:18.160Z,5.86
2023-02-12T23:33:45.287Z,5.92
2023-02-12T23:36:12.313Z,5.90
2023-02-12T23:38:39.307Z,5.78
2023-02-12T23:41:06.490Z,5.85
2023-02-12T23:43:33.566Z,5.94
2023-02-12T23:46:00.900Z,5.92
2023-02-12T23:48:28.039Z,5.86
2023-02-12T23:50:55.553Z,5.92
2023-02-12T23:53:22.864Z,5.98
2023-02-12T23:55:51.360Z,6.04
2023-02-12T23:58:18.450Z,6.08
